Portada
METAR-TAF:

METAR-TAF

Aeropuertos :

Qazvin, Irán

latitud: 36-15N, longitud: 050-00E, altitud: 1278 m

Observación

El informe se hizo hace 35 minutos, a las 20:00 UTC
Viento 2 kt del oeste-noroeste
Temperatura 3°C
Humedad 87%
Presión 1013 hPa
Visibilidad 10 km o más
sin nubes por debajo de 1500 m y sin presencia de cumulonimbus.

METAR: OIIK 202000Z 29002KT CAVOK 03/01 Q1013

Hora: 01:05 (20:35 UTC)


TAF: falta

Observaciones y pronósticos meteorológicos de más de 4000 aeropuertos (mensajes METAR y TAF).

Los puntos amarillos y rojos representan las estaciones disponibles.

Ponga el ratón en el punto deseado para ver el nombre de la estación.

Haga clic para ver las observaciones y los pronósticos meteorológicos.

Para cambiar el mapa : haga clic en los botones verdes con una cruz de color negro para hacer un zoom, en el botón verde con un guión para alejar o en las flechas verdes para mapas adyacentes.


METAR-TAF: